Weather at Queen Beatrix International Airport

Public forecast

Using degrees Celsius for public forecast. Weather courtesy of forecast.io.

Current aviation weather report (METAR) for Queen Beatrix International Airport

Report is more than 2 hours old.

Retrieved 2022/08/15 03:00 UTC (4 hours ago):

TNCA 150300Z 08014KT 9999 FEW018 28/25 Q1013 NOSIG

Aviation forecast (TAF) for Queen Beatrix International Airport

Retrieved 2022-08-15 00:59 UTC (6 hours ago):

TAF TNCA 142302Z 1500/1524 09012KT 9999 SCT018 TEMPO 1500/1516 3000 SHRA FEW013CB BKN015